createdAt,value
2023-03-18T00:02:04.734Z,12.77
2023-03-18T00:04:32.114Z,11.70
2023-03-18T00:06:59.921Z,11.20
2023-03-18T00:09:27.511Z,11.70
2023-03-18T00:11:56.852Z,13.07
2023-03-18T00:14:24.497Z,12.43
2023-03-18T00:16:51.849Z,12.18
2023-03-18T00:19:20.169Z,10.63
2023-03-18T00:21:47.586Z,11.50
2023-03-18T00:24:15.560Z,14.70
2023-03-18T00:26:43.899Z,12.05
2023-03-18T00:29:11.320Z,10.25
2023-03-18T00:31:38.879Z,11.45
2023-03-18T00:34:06.430Z,12.27
2023-03-18T00:36:34.009Z,9.18
2023-03-18T00:39:03.836Z,12.07
2023-03-18T00:41:33.299Z,9.07
2023-03-18T00:44:00.576Z,9.77
2023-03-18T00:46:30.330Z,10.52
2023-03-18T00:49:00.508Z,8.48
2023-03-18T00:51:31.556Z,11.98
2023-03-18T00:54:02.027Z,8.50
2023-03-18T00:56:32.154Z,8.32
2023-03-18T00:59:00.894Z,9.53
2023-03-18T01:01:28.778Z,9.05
2023-03-18T01:03:56.533Z,8.57
2023-03-18T01:06:28.499Z,9.23
2023-03-18T01:11:25.375Z,9.50
2023-03-18T01:13:53.189Z,9.23
2023-03-18T01:16:21.905Z,7.32
2023-03-18T01:18:49.617Z,9.05
2023-03-18T01:21:18.203Z,8.60
2023-03-18T01:23:53.762Z,9.95
2023-03-18T01:26:21.511Z,12.52
2023-03-18T01:28:48.946Z,8.65
2023-03-18T01:31:16.536Z,8.95
2023-03-18T01:33:47.965Z,9.38
2023-03-18T01:36:15.731Z,8.43
2023-03-18T01:38:45.238Z,9.93
2023-03-18T01:41:14.713Z,13.20
2023-03-18T01:43:43.580Z,8.93
2023-03-18T01:46:30.794Z,8.52
2023-03-18T01:48:59.155Z,9.02
2023-03-18T01:51:27.430Z,9.52
2023-03-18T01:53:56.715Z,8.95
2023-03-18T01:56:24.333Z,12.27
2023-03-18T01:58:55.073Z,10.10
2023-03-18T02:01:27.915Z,12.70
2023-03-18T02:03:57.458Z,8.57
2023-03-18T02:06:25.416Z,9.13
2023-03-18T02:09:00.610Z,10.35
2023-03-18T02:11:36.222Z,11.18
2023-03-18T02:14:05.648Z,9.52
2023-03-18T02:16:46.383Z,9.88
2023-03-18T02:19:37.823Z,10.03
2023-03-18T02:22:19.185Z,7.63
2023-03-18T02:24:49.790Z,7.40
2023-03-18T02:27:30.257Z,7.65
2023-03-18T02:30:01.845Z,9.32
2023-03-18T02:32:34.498Z,8.38
2023-03-18T02:35:07.545Z,11.73
2023-03-18T02:37:36.973Z,10.35
2023-03-18T02:40:26.816Z,8.10
2023-03-18T02:42:55.237Z,8.48
2023-03-18T02:45:55.420Z,7.43
2023-03-18T02:48:26.297Z,9.57
2023-03-18T02:50:55.638Z,10.70
2023-03-18T02:53:22.909Z,11.52
2023-03-18T02:55:50.317Z,10.77
2023-03-18T02:58:17.649Z,12.75
2023-03-18T03:00:46.702Z,7.85
2023-03-18T03:03:14.341Z,8.13
2023-03-18T03:05:42.082Z,10.13
2023-03-18T03:08:10.197Z,10.85
2023-03-18T03:10:40.780Z,9.33
2023-03-18T03:13:09.861Z,9.15
2023-03-18T03:15:39.724Z,10.80
2023-03-18T03:18:07.792Z,10.50
2023-03-18T03:20:37.700Z,10.52
2023-03-18T03:23:12.718Z,8.65
2023-03-18T03:25:40.986Z,11.68
2023-03-18T03:28:08.705Z,9.55
2023-03-18T03:30:36.811Z,9.18
2023-03-18T03:33:04.443Z,10.70
2023-03-18T03:35:31.883Z,8.75
2023-03-18T03:37:59.640Z,9.05
2023-03-18T03:40:27.867Z,12.15
2023-03-18T03:42:55.552Z,10.93
2023-03-18T03:45:23.247Z,15.38
2023-03-18T03:47:51.570Z,9.73
2023-03-18T03:50:19.283Z,8.25
2023-03-18T03:52:47.258Z,10.07
2023-03-18T03:55:19.557Z,10.27
2023-03-18T03:57:47.965Z,10.60
2023-03-18T04:00:18.959Z,8.35
2023-03-18T04:02:50.279Z,11.93
2023-03-18T04:05:21.052Z,10.70
2023-03-18T04:07:49.358Z,9.00
2023-03-18T04:10:20.404Z,8.98
2023-03-18T04:12:48.142Z,9.13
2023-03-18T04:15:18.544Z,10.30
2023-03-18T04:17:50.073Z,9.45
2023-03-18T04:20:19.252Z,13.07
2023-03-18T04:22:48.009Z,9.27
2023-03-18T04:25:17.279Z,9.98
2023-03-18T04:27:45.135Z,11.02
2023-03-18T04:30:14.313Z,10.63
2023-03-18T04:32:55.818Z,11.00
2023-03-18T04:35:23.621Z,10.50
2023-03-18T04:37:51.736Z,9.80
2023-03-18T04:40:20.524Z,9.65
2023-03-18T04:42:48.094Z,9.52
2023-03-18T04:45:17.829Z,9.90
2023-03-18T04:47:45.643Z,11.27
2023-03-18T04:50:14.318Z,11.00
2023-03-18T04:52:42.894Z,8.35
2023-03-18T04:55:15.348Z,10.32
2023-03-18T04:57:43.617Z,10.25
2023-03-18T05:00:17.464Z,10.05
2023-03-18T05:02:47.253Z,10.55
2023-03-18T05:05:14.741Z,16.45
2023-03-18T05:07:47.097Z,13.18
2023-03-18T05:10:16.566Z,11.98
2023-03-18T05:12:43.870Z,11.25
2023-03-18T05:15:14.452Z,12.02
2023-03-18T05:17:47.802Z,10.55
2023-03-18T05:20:15.216Z,11.68
2023-03-18T05:22:45.176Z,12.55
2023-03-18T05:25:22.098Z,9.77
2023-03-18T05:27:49.807Z,9.32
2023-03-18T05:30:27.405Z,10.75
2023-03-18T05:32:55.254Z,12.65
2023-03-18T05:35:36.372Z,12.03
2023-03-18T05:38:04.291Z,9.13
2023-03-18T05:40:31.674Z,10.10
2023-03-18T05:43:16.843Z,12.35
2023-03-18T05:45:51.359Z,9.80
2023-03-18T05:50:58.863Z,11.60
2023-03-18T05:53:29.332Z,11.43
2023-03-18T05:56:09.239Z,15.15
2023-03-18T05:58:36.707Z,10.50
2023-03-18T06:01:25.975Z,10.63
2023-03-18T06:03:55.356Z,10.23
2023-03-18T06:06:22.700Z,10.35
2023-03-18T06:08:50.076Z,10.38
2023-03-18T06:11:17.451Z,9.68
2023-03-18T06:13:45.360Z,12.90
2023-03-18T06:16:13.076Z,10.60
2023-03-18T06:18:40.749Z,11.50
2023-03-18T06:21:10.616Z,13.25
2023-03-18T06:23:38.589Z,9.55
2023-03-18T06:26:07.339Z,9.65
2023-03-18T06:28:39.239Z,10.68
2023-03-18T06:31:10.977Z,9.52
2023-03-18T06:33:39.877Z,12.25
2023-03-18T06:36:10.781Z,10.63
2023-03-18T06:38:43.818Z,12.60
2023-03-18T06:41:12.007Z,11.05
2023-03-18T06:43:47.968Z,11.77
2023-03-18T06:46:15.490Z,13.32
2023-03-18T06:48:45.786Z,11.25
2023-03-18T06:51:17.289Z,14.43
2023-03-18T06:53:45.196Z,13.43
2023-03-18T06:56:16.062Z,14.07
2023-03-18T06:59:00.907Z,10.00
2023-03-18T07:01:30.517Z,12.55
2023-03-18T07:03:59.139Z,11.60
2023-03-18T07:06:30.294Z,9.85
2023-03-18T07:08:58.825Z,10.93
2023-03-18T07:11:26.856Z,12.65
2023-03-18T07:13:54.786Z,10.48
2023-03-18T07:16:28.449Z,11.75
2023-03-18T07:18:58.339Z,12.82
2023-03-18T07:21:26.410Z,11.38
2023-03-18T07:23:55.580Z,12.57
2023-03-18T07:26:25.892Z,11.30
2023-03-18T07:28:53.151Z,11.68
2023-03-18T07:31:20.482Z,11.60
2023-03-18T07:33:48.891Z,11.90
2023-03-18T07:36:16.349Z,10.68
2023-03-18T07:38:43.706Z,11.40
2023-03-18T07:41:11.395Z,14.00
2023-03-18T07:43:40.203Z,9.85
2023-03-18T07:46:07.885Z,14.80
2023-03-18T07:48:35.396Z,12.00
2023-03-18T07:51:02.901Z,16.50
2023-03-18T07:53:30.295Z,9.02
2023-03-18T07:55:57.626Z,13.13
2023-03-18T07:58:25.830Z,13.30
2023-03-18T08:00:54.132Z,14.02
2023-03-18T08:03:21.611Z,11.45
2023-03-18T08:05:48.899Z,9.57
2023-03-18T08:08:16.707Z,11.35
2023-03-18T08:10:44.166Z,16.52
2023-03-18T08:13:13.089Z,16.02
2023-03-18T08:15:41.066Z,12.02
2023-03-18T08:18:09.420Z,10.15
2023-03-18T08:20:36.920Z,12.63
2023-03-18T08:23:04.300Z,17.80
2023-03-18T08:25:32.857Z,12.48
2023-03-18T08:28:00.312Z,12.18
2023-03-18T08:30:28.958Z,12.73
2023-03-18T08:32:57.503Z,16.25
2023-03-18T08:35:24.933Z,13.38
2023-03-18T08:37:52.311Z,12.90
2023-03-18T08:40:20.524Z,18.35
2023-03-18T08:42:48.259Z,10.93
2023-03-18T08:45:16.259Z,14.68
2023-03-18T08:47:43.746Z,18.83
2023-03-18T08:50:12.024Z,19.50
2023-03-18T08:52:39.884Z,14.00
2023-03-18T08:55:09.762Z,19.27
2023-03-18T08:57:38.044Z,12.82
2023-03-18T09:00:06.619Z,11.82
2023-03-18T09:02:33.953Z,10.77
2023-03-18T09:05:01.279Z,12.32
2023-03-18T09:07:28.700Z,11.93
2023-03-18T09:09:55.954Z,18.17
2023-03-18T09:12:23.446Z,17.63
2023-03-18T09:14:50.703Z,18.80
2023-03-18T09:17:18.015Z,13.30
2023-03-18T09:19:45.432Z,14.05
2023-03-18T09:22:12.799Z,12.05
2023-03-18T09:24:40.802Z,15.93
2023-03-18T09:27:08.214Z,12.55
2023-03-18T09:29:35.710Z,11.32
2023-03-18T09:32:03.014Z,10.05
2023-03-18T09:34:30.604Z,17.02
2023-03-18T09:36:58.413Z,13.68
2023-03-18T09:39:26.153Z,11.35
2023-03-18T09:41:59.797Z,10.43
2023-03-18T09:44:33.718Z,12.90
2023-03-18T09:47:55.445Z,15.57
2023-03-18T09:50:42.903Z,13.88
2023-03-18T09:53:18.458Z,11.77
2023-03-18T09:55:50.817Z,9.77
2023-03-18T09:58:40.409Z,10.10
2023-03-18T10:01:09.884Z,9.07
2023-03-18T10:03:43.931Z,9.07
2023-03-18T10:06:23.885Z,13.45
2023-03-18T10:09:15.493Z,9.50
2023-03-18T10:11:45.914Z,7.30
2023-03-18T10:14:39.923Z,9.13
2023-03-18T10:17:55.832Z,8.55
2023-03-18T10:20:40.744Z,10.10
2023-03-18T10:23:44.041Z,8.25
2023-03-18T10:26:27.040Z,9.75
2023-03-18T10:29:08.885Z,9.30
2023-03-18T10:31:47.547Z,9.35
2023-03-18T10:34:22.917Z,12.77
2023-03-18T10:37:09.801Z,10.73
2023-03-18T10:39:37.692Z,9.80
2023-03-18T10:42:26.605Z,9.23
2023-03-18T10:45:08.716Z,9.98
2023-03-18T10:52:50.996Z,9.52
2023-03-18T10:55:23.879Z,11.43
2023-03-18T10:57:51.620Z,7.57
2023-03-18T11:00:36.052Z,11.35
2023-03-18T11:03:05.768Z,9.80
2023-03-18T11:05:36.583Z,9.10
2023-03-18T11:08:05.496Z,7.32
2023-03-18T11:10:40.608Z,8.20
2023-03-18T11:13:07.802Z,6.60
2023-03-18T11:15:40.484Z,6.78
2023-03-18T11:18:19.605Z,7.25
2023-03-18T11:20:50.294Z,6.35
2023-03-18T11:23:56.470Z,8.07
2023-03-18T11:26:25.109Z,6.63
2023-03-18T11:28:57.992Z,8.90
2023-03-18T11:31:25.500Z,9.05
2023-03-18T11:34:00.702Z,10.73
2023-03-18T11:36:28.705Z,6.85
2023-03-18T11:38:59.126Z,9.50
2023-03-18T11:41:28.325Z,9.07
2023-03-18T11:44:17.871Z,7.93
2023-03-18T11:47:01.848Z,7.78
2023-03-18T11:49:31.444Z,7.00
2023-03-18T11:52:22.926Z,6.72
2023-03-18T11:55:04.802Z,7.80
2023-03-18T11:57:43.909Z,5.55
2023-03-18T12:00:20.769Z,8.88
2023-03-18T12:02:58.099Z,7.28
2023-03-18T12:05:31.592Z,6.72
2023-03-18T12:08:12.117Z,6.13
2023-03-18T12:10:39.325Z,7.97
2023-03-18T12:13:26.245Z,7.85
2023-03-18T12:16:13.217Z,5.28
2023-03-18T12:19:02.448Z,6.57
2023-03-18T12:21:41.955Z,8.18
2023-03-18T12:24:38.367Z,6.57
2023-03-18T12:27:35.088Z,10.32
2023-03-18T12:30:36.997Z,8.00
2023-03-18T12:33:38.832Z,6.90
2023-03-18T12:36:44.635Z,11.90
2023-03-18T12:39:36.148Z,7.07
2023-03-18T12:42:17.602Z,6.55
2023-03-18T12:45:03.291Z,6.35
2023-03-18T12:47:36.997Z,7.63
2023-03-18T12:50:15.368Z,6.43
2023-03-18T12:52:55.276Z,9.23
2023-03-18T12:55:24.650Z,6.07
2023-03-18T12:58:10.988Z,9.05
2023-03-18T13:01:18.309Z,8.93
2023-03-18T13:03:52.123Z,8.02
2023-03-18T13:06:39.556Z,5.25
2023-03-18T13:09:11.975Z,8.27
2023-03-18T13:12:15.239Z,6.05
2023-03-18T13:15:24.706Z,7.03
2023-03-18T13:17:57.341Z,6.95
2023-03-18T13:20:39.249Z,6.65
2023-03-18T13:23:16.912Z,6.63
2023-03-18T13:25:59.075Z,6.15
2023-03-18T13:28:47.309Z,7.70
2023-03-18T13:31:38.630Z,6.50
2023-03-18T13:34:26.700Z,6.82
2023-03-18T13:37:05.052Z,8.20
2023-03-18T13:39:43.058Z,6.70
2023-03-18T13:42:30.062Z,6.65
2023-03-18T13:45:06.999Z,4.82
2023-03-18T13:47:38.150Z,5.82
2023-03-18T13:50:29.160Z,5.25
2023-03-18T13:55:27.689Z,4.90
2023-03-18T13:57:57.320Z,6.93
2023-03-18T14:00:38.498Z,4.97
2023-03-18T14:03:13.302Z,7.50
2023-03-18T14:05:42.530Z,5.90
2023-03-18T14:08:34.490Z,4.88
2023-03-18T14:11:37.258Z,5.45
2023-03-18T14:14:06.204Z,6.22
2023-03-18T14:16:38.064Z,7.25
2023-03-18T14:19:19.442Z,5.57
2023-03-18T14:21:53.210Z,6.70
2023-03-18T14:24:21.883Z,7.25
2023-03-18T14:27:10.562Z,6.03
2023-03-18T14:29:39.492Z,7.53
2023-03-18T14:32:22.601Z,4.72
2023-03-18T14:35:18.753Z,5.70
2023-03-18T14:38:07.423Z,8.90
2023-03-18T14:40:48.245Z,8.77
2023-03-18T14:43:55.100Z,7.93
2023-03-18T14:46:31.569Z,7.20
2023-03-18T14:48:58.983Z,7.20
2023-03-18T14:51:30.638Z,6.60
2023-03-18T14:54:07.742Z,5.72
2023-03-18T14:56:42.589Z,8.52
2023-03-18T14:59:15.820Z,6.47
2023-03-18T15:01:50.769Z,6.38
2023-03-18T15:04:24.982Z,7.30
2023-03-18T15:06:54.064Z,6.50
2023-03-18T15:09:33.993Z,6.43
2023-03-18T15:12:16.590Z,8.68
2023-03-18T15:14:43.904Z,7.00
2023-03-18T15:17:20.420Z,6.53
2023-03-18T15:19:47.729Z,7.18
2023-03-18T15:22:26.204Z,8.43
2023-03-18T15:25:00.022Z,7.30
2023-03-18T15:27:30.811Z,6.35
2023-03-18T15:30:00.850Z,7.13
2023-03-18T15:32:33.901Z,7.05
2023-03-18T15:35:24.046Z,8.23
2023-03-18T15:38:06.819Z,10.02
2023-03-18T15:40:45.326Z,7.90
2023-03-18T15:43:19.540Z,11.73
2023-03-18T15:45:53.360Z,7.35
2023-03-18T15:48:42.639Z,5.97
2023-03-18T15:51:30.270Z,7.78
2023-03-18T15:54:04.057Z,9.50
2023-03-18T15:56:34.037Z,8.63
2023-03-18T15:59:13.108Z,7.97
2023-03-18T16:01:40.636Z,7.43
2023-03-18T16:04:12.328Z,6.53
2023-03-18T16:06:40.509Z,8.05
2023-03-18T16:09:19.275Z,8.23
2023-03-18T16:11:59.212Z,6.70
2023-03-18T16:14:36.556Z,8.63
2023-03-18T16:17:03.923Z,10.07
2023-03-18T16:19:31.341Z,8.93
2023-03-18T16:22:00.028Z,9.45
2023-03-18T16:24:27.722Z,7.72
2023-03-18T16:26:56.822Z,7.60
2023-03-18T16:29:31.680Z,7.47
2023-03-18T16:31:59.788Z,6.38
2023-03-18T16:34:28.072Z,10.13
2023-03-18T16:36:55.519Z,10.43
2023-03-18T16:39:34.019Z,8.90
2023-03-18T16:42:03.262Z,11.27
2023-03-18T16:44:31.384Z,10.32
2023-03-18T16:46:59.114Z,8.55
2023-03-18T16:49:31.352Z,8.88
2023-03-18T16:51:59.657Z,7.07
2023-03-18T16:54:31.756Z,8.13
2023-03-18T16:57:03.188Z,8.48
2023-03-18T16:59:33.945Z,6.45
2023-03-18T17:02:04.093Z,10.83
2023-03-18T17:04:34.531Z,6.70
2023-03-18T17:07:04.681Z,7.53
2023-03-18T17:09:32.189Z,8.88
2023-03-18T17:12:03.989Z,6.93
2023-03-18T17:17:01.550Z,5.88
2023-03-18T17:19:29.480Z,8.30
2023-03-18T17:21:56.788Z,6.45
2023-03-18T17:24:24.099Z,8.18
2023-03-18T17:26:51.917Z,9.05
2023-03-18T17:29:27.673Z,8.98
2023-03-18T17:31:56.478Z,9.98
2023-03-18T17:34:24.030Z,8.40
2023-03-18T17:36:51.437Z,10.20
2023-03-18T17:39:18.752Z,10.25
2023-03-18T17:41:46.002Z,10.32
2023-03-18T17:44:29.872Z,12.05
2023-03-18T17:46:57.839Z,11.73
2023-03-18T17:49:29.251Z,10.93
2023-03-18T17:52:00.781Z,8.88
2023-03-18T17:54:31.586Z,13.27
2023-03-18T17:56:59.419Z,9.13
2023-03-18T17:59:27.612Z,11.40
2023-03-18T18:01:55.245Z,10.43
2023-03-18T18:04:24.951Z,10.63
2023-03-18T18:06:52.660Z,9.05
2023-03-18T18:09:21.605Z,8.50
2023-03-18T18:11:54.241Z,11.20
2023-03-18T18:14:30.982Z,9.77
2023-03-18T18:16:59.704Z,11.63
2023-03-18T18:19:27.169Z,10.00
2023-03-18T18:21:55.242Z,13.15
2023-03-18T18:24:30.928Z,12.07
2023-03-18T18:26:58.382Z,13.13
2023-03-18T18:29:33.857Z,14.18
2023-03-18T18:32:02.440Z,10.82
2023-03-18T18:34:29.683Z,10.75
2023-03-18T18:36:58.853Z,12.20
2023-03-18T18:39:26.148Z,13.98
2023-03-18T18:41:53.538Z,12.23
2023-03-18T18:44:20.958Z,11.68
2023-03-18T18:46:49.056Z,12.48
2023-03-18T18:49:24.371Z,17.88
2023-03-18T18:51:57.527Z,13.18
2023-03-18T18:54:25.504Z,15.20
2023-03-18T18:56:53.150Z,12.95
2023-03-18T18:59:27.678Z,13.02
2023-03-18T19:01:55.658Z,13.77
2023-03-18T19:04:24.022Z,14.95
2023-03-18T19:06:52.814Z,10.23
2023-03-18T19:09:24.509Z,15.15
2023-03-18T19:11:53.465Z,15.23
2023-03-18T19:14:28.657Z,15.15
2023-03-18T19:16:58.799Z,20.00
2023-03-18T19:19:29.586Z,18.15
2023-03-18T19:21:57.762Z,17.05
2023-03-18T19:24:28.587Z,18.75
2023-03-18T19:26:58.969Z,13.70
2023-03-18T19:29:26.776Z,17.10
2023-03-18T19:31:54.812Z,18.15
2023-03-18T19:34:22.971Z,18.45
2023-03-18T19:36:53.275Z,16.10
2023-03-18T19:39:22.545Z,18.73
2023-03-18T19:41:51.459Z,11.75
2023-03-18T19:44:22.031Z,18.15
2023-03-18T19:46:52.141Z,15.00
2023-03-18T19:49:35.133Z,18.88
2023-03-18T19:52:07.076Z,15.93
2023-03-18T19:54:36.789Z,14.93
2023-03-18T19:57:14.911Z,15.23
2023-03-18T19:59:44.729Z,16.63
2023-03-18T20:02:27.644Z,15.52
2023-03-18T20:04:56.614Z,16.55
2023-03-18T20:07:26.982Z,15.82
2023-03-18T20:09:55.193Z,17.98
2023-03-18T20:12:40.415Z,18.63
2023-03-18T20:15:22.958Z,19.15
2023-03-18T20:17:52.030Z,21.15
2023-03-18T20:20:24.024Z,23.13
2023-03-18T20:22:56.621Z,17.80
2023-03-18T20:25:28.579Z,19.80
2023-03-18T20:27:57.740Z,19.17
2023-03-18T20:30:30.278Z,17.67
2023-03-18T20:32:58.434Z,17.40
2023-03-18T20:35:32.015Z,18.23
2023-03-18T20:38:04.174Z,27.90
2023-03-18T20:40:32.234Z,29.02
2023-03-18T20:42:59.587Z,25.80
2023-03-18T20:45:27.270Z,32.25
2023-03-18T20:47:54.546Z,29.42
2023-03-18T20:50:28.545Z,34.53
2023-03-18T20:52:57.688Z,30.67
2023-03-18T20:55:30.863Z,29.80
2023-03-18T20:58:00.749Z,27.50
2023-03-18T21:00:33.323Z,29.88
2023-03-18T21:03:03.097Z,24.30
2023-03-18T21:05:31.054Z,24.33
2023-03-18T21:07:58.507Z,24.30
2023-03-18T21:10:27.452Z,22.27
2023-03-18T21:12:55.025Z,23.90
2023-03-18T21:15:25.528Z,19.17
2023-03-18T21:17:53.264Z,17.85
2023-03-18T21:20:25.717Z,20.95
2023-03-18T21:22:54.393Z,19.35
2023-03-18T21:25:24.251Z,19.35
2023-03-18T21:27:53.775Z,18.05
2023-03-18T21:30:22.692Z,18.58
2023-03-18T21:32:53.425Z,15.23
2023-03-18T21:35:26.199Z,17.70
2023-03-18T21:37:53.729Z,20.77
2023-03-18T21:40:23.540Z,19.67
2023-03-18T21:42:51.964Z,20.55
2023-03-18T21:45:22.969Z,21.67
2023-03-18T21:47:52.632Z,21.73
2023-03-18T21:50:25.443Z,20.10
2023-03-18T21:52:54.329Z,17.27
2023-03-18T21:55:22.275Z,17.50
2023-03-18T21:57:49.737Z,15.25
2023-03-18T22:00:20.203Z,15.45
2023-03-18T22:02:48.419Z,18.77
2023-03-18T22:05:19.154Z,17.45
2023-03-18T22:07:46.929Z,14.90
2023-03-18T22:10:19.794Z,19.58
2023-03-18T22:12:47.121Z,25.92
2023-03-18T22:15:35.109Z,24.63
2023-03-18T22:18:03.221Z,22.95
2023-03-18T22:20:30.840Z,20.70
2023-03-18T22:22:58.193Z,21.02
2023-03-18T22:25:28.196Z,20.83
2023-03-18T22:27:56.306Z,21.83
2023-03-18T22:30:24.862Z,19.25
2023-03-18T22:32:53.046Z,19.17
2023-03-18T22:35:25.648Z,19.60
2023-03-18T22:37:53.681Z,17.35
2023-03-18T22:40:26.007Z,17.25
2023-03-18T22:42:58.696Z,18.10
2023-03-18T22:45:27.247Z,17.92
2023-03-18T22:47:57.415Z,17.98
2023-03-18T22:50:26.574Z,17.73
2023-03-18T22:53:03.610Z,16.63
2023-03-18T22:55:41.149Z,15.05
2023-03-18T22:58:27.289Z,16.13
2023-03-18T23:00:55.422Z,16.48
2023-03-18T23:03:28.852Z,14.95
2023-03-18T23:05:58.419Z,17.80
2023-03-18T23:08:25.757Z,17.38
2023-03-18T23:10:54.267Z,14.82
2023-03-18T23:13:35.045Z,16.73
2023-03-18T23:16:05.309Z,15.68
2023-03-18T23:18:32.978Z,13.25
2023-03-18T23:21:03.939Z,19.27
2023-03-18T23:23:31.820Z,15.63
2023-03-18T23:25:59.198Z,16.15
2023-03-18T23:28:26.621Z,15.52
2023-03-18T23:30:54.197Z,14.52
2023-03-18T23:33:21.717Z,14.15
2023-03-18T23:35:49.093Z,13.88
2023-03-18T23:38:16.884Z,14.05
2023-03-18T23:40:44.546Z,15.02
2023-03-18T23:43:12.032Z,14.63
2023-03-18T23:45:39.941Z,14.65
2023-03-18T23:48:07.841Z,15.85
2023-03-18T23:50:35.398Z,18.33
2023-03-18T23:53:02.807Z,20.10
2023-03-18T23:55:35.020Z,18.92
2023-03-18T23:58:03.918Z,18.73
